Saint-Charles-Sur-Richelieu, Canada
Current Conditions -  °F | °C
As of 1:56 AM on Friday 28 Nov 2014 (Local Time) from CYHU Reporting Station
Light Snow Light Snow  
Wind Chill: 18°   Ceiling: 3600
Heat Index: 25°   Visibility: 4mi
Dew Point: 19°   Wind: 6mph
Humidity: 80%   Direction: 40°NE
Pressure: 30.05"   Gusts: NA
Location:  45.68°N, 73.18°W
Report Text: CYHU 280656Z AUTO 04005KT 4SM -SNSN FEW026 OVC036 M04/M07 A3005 RMK SLP177
Loading
Personal Weather Stations






























Interactive Weather Map New forecast layout! Learn more

10-Day Weather Forecast

Advertisements
Track Severe Weather on mobile